Track Мезенцева Ольга

Time Latitude Longitude Accuracy (66% radius in meters) Altitude (meters) Speed (km/hour) Bearing (degrees) Battery (%) GPS flag
09:27:24 60.370910 29.556322 4 84 0 175.39570617676 51 1 delete
09:27:11 60.370929 29.556310 6 79 0 175.39570617676 51 1 delete
09:26:58 60.370926 29.556314 4 77 0 175.39570617676 51 1 delete
09:26:46 60.370923 29.556326 6 79 0 175.39570617676 51 1 delete
09:26:38 60.370932 29.556352 8 80 0 175.39570617676 51 1 delete
09:26:33 60.370937 29.556367 8 79 0 175.39570617676 51 1 delete
09:26:21 60.370983 29.556408 6 78 0 175.39570617676 51 1 delete
09:26:08 60.370977 29.556411 6 80 0 175.39570617676 51 1 delete
09:25:56 60.370971 29.556391 8 78 0 175.39570617676 51 1 delete
09:25:53 60.370972 29.556401 6 79 0 175.39570617676 51 1 delete
09:25:44 60.371012 29.556351 12 75 0 242.73976135254 51 1 delete
09:25:32 60.371012 29.556351 6 71 0 242.73976135254 51 1 delete
09:25:20 60.371010 29.556343 6 69 0 242.73976135254 51 1 delete
09:25:19 60.371009 29.556340 6 68 0 242.73976135254 51 1 delete
09:25:06 60.370983 29.556281 6 69 0 242.73976135254 51 1 delete
09:25:02 60.370974 29.556288 6 68 0 242.73976135254 51 1 delete
09:24:53 60.370926 29.556280 6 69 0 242.73976135254 51 1 delete
09:24:41 60.370893 29.556275 6 79 0 191.73631286621 51 1 delete
09:24:30 60.370927 29.556296 8 80 0 236.7561340332 51 1 delete
09:24:28 60.370940 29.556299 8 80 0 236.7561340332 51 1 delete
09:24:16 60.370956 29.556292 8 81 0 236.7561340332 51 1 delete
09:24:04 60.370970 29.556335 12 81 0 212.79670715332 51 1 delete
09:23:51 60.370970 29.556321 8 75 0 212.79670715332 51 1 delete
09:23:37 60.370971 29.556325 6 80 0 284.89596557617 51 1 delete
09:23:28 60.370975 29.556301 12 73 0 211.58770751953 51 1 delete
09:23:25 60.370988 29.556244 8 75 0 211.58770751953 51 1 delete
09:23:24 60.370995 29.556215 8 77 0 211.58770751953 51 1 delete
09:23:12 60.371008 29.556149 8 92 0 216.26908874512 51 1 delete
09:22:59 60.371024 29.556166 12 106 0 108.1625213623 51 1 delete
09:22:50 60.371032 29.556142 8 94 0 181.00891113281 51 1 delete
09:22:47 60.371041 29.556132 8 96 0 181.00891113281 51 1 delete
09:22:34 60.371089 29.556100 16 93 0 308.79675292969 51 1 delete
09:22:27 60.371077 29.556126 8 86 0 324.77819824219 51 1 delete
09:22:22 60.371059 29.556150 8 86 0 74.63232421875 51 1 delete
09:22:16 60.371034 29.556148 8 85 0 232.63432312012 51 1 delete
09:22:08 60.371000 29.556189 12 83 0 300.42416381836 51 1 delete
09:21:56 60.371000 29.556184 8 91 0 209.33831787109 51 1 delete
09:21:43 60.371012 29.556201 6 85 0 18.340600967407 51 1 delete
09:21:29 60.370980 29.556194 8 85 0 88.374046325684 51 1 delete
09:21:20 60.370985 29.556169 16 89 0 221.66020202637 51 1 delete
09:21:16 60.370989 29.556200 8 93 0 221.66020202637 51 1 delete
09:21:07 60.371004 29.556257 8 104 0 20.079662322998 51 1 delete
09:21:03 60.370997 29.556278 12 103 0 182.77412414551 51 1 delete
09:20:47 60.371008 29.556348 6 111 0 23.143611907959 51 1 delete
09:20:46 60.371010 29.556348 12 107 0 23.143611907959 51 1 delete
09:20:36 60.371035 29.556269 12 108 0 267.64877319336 51 1 delete
09:20:34 60.371045 29.556219 12 105 0 267.64877319336 51 1 delete
09:20:22 60.371051 29.556180 6 106 0 13.000161170959 51 1 delete
09:20:08 60.371064 29.556193 6 95 0 21.907188415527 51 1 delete
09:19:58 60.371078 29.556209 8 92 0 215.24299621582 51 1 delete